sensor_id;sensor_type;location;lat;lon;timestamp;temperature;humidity
52245;DHT22;55759;51.586;-1.758;2023-09-19T00:00:42;12.20;90.00
52245;DHT22;55759;51.586;-1.758;2023-09-19T00:03:08;12.20;90.10
52245;DHT22;55759;51.586;-1.758;2023-09-19T00:05:34;12.20;90.00
52245;DHT22;55759;51.586;-1.758;2023-09-19T00:08:01;12.20;89.90
52245;DHT22;55759;51.586;-1.758;2023-09-19T00:10:27;12.20;89.70
52245;DHT22;55759;51.586;-1.758;2023-09-19T00:12:56;12.20;89.60
52245;DHT22;55759;51.586;-1.758;2023-09-19T00:15:22;12.20;89.50
52245;DHT22;55759;51.586;-1.758;2023-09-19T00:17:48;12.10;89.60
52245;DHT22;55759;51.586;-1.758;2023-09-19T00:20:14;12.10;89.80
52245;DHT22;55759;51.586;-1.758;2023-09-19T00:22:43;12.10;89.80
52245;DHT22;55759;51.586;-1.758;2023-09-19T00:25:09;12.10;89.90
52245;DHT22;55759;51.586;-1.758;2023-09-19T00:27:40;12.10;89.80
52245;DHT22;55759;51.586;-1.758;2023-09-19T00:30:09;12.10;89.80
52245;DHT22;55759;51.586;-1.758;2023-09-19T00:32:40;12.10;89.90
52245;DHT22;55759;51.586;-1.758;2023-09-19T00:35:08;12.10;89.80
52245;DHT22;55759;51.586;-1.758;2023-09-19T00:37:39;12.00;89.90
52245;DHT22;55759;51.586;-1.758;2023-09-19T00:40:05;12.00;90.10
52245;DHT22;55759;51.586;-1.758;2023-09-19T00:42:32;12.00;90.10
52245;DHT22;55759;51.586;-1.758;2023-09-19T00:44:59;12.00;90.20
52245;DHT22;55759;51.586;-1.758;2023-09-19T00:47:24;12.00;90.10
52245;DHT22;55759;51.586;-1.758;2023-09-19T00:49:50;12.00;90.20
52245;DHT22;55759;51.586;-1.758;2023-09-19T00:52:16;12.00;90.10
52245;DHT22;55759;51.586;-1.758;2023-09-19T00:54:46;12.00;90.10
52245;DHT22;55759;51.586;-1.758;2023-09-19T00:57:12;12.00;90.10
52245;DHT22;55759;51.586;-1.758;2023-09-19T00:59:37;12.00;90.10
52245;DHT22;55759;51.586;-1.758;2023-09-19T01:02:03;12.00;90.10
52245;DHT22;55759;51.586;-1.758;2023-09-19T01:04:29;12.00;90.00
52245;DHT22;55759;51.586;-1.758;2023-09-19T01:06:56;11.90;90.10
52245;DHT22;55759;51.586;-1.758;2023-09-19T01:09:23;12.00;90.10
52245;DHT22;55759;51.586;-1.758;2023-09-19T01:11:49;11.90;90.10
52245;DHT22;55759;51.586;-1.758;2023-09-19T01:14:28;11.90;90.20
52245;DHT22;55759;51.586;-1.758;2023-09-19T01:22:13;12.10;90.00
52245;DHT22;55759;51.586;-1.758;2023-09-19T01:29:49;12.20;90.00
52245;DHT22;55759;51.586;-1.758;2023-09-19T01:32:21;12.20;89.80
52245;DHT22;55759;51.586;-1.758;2023-09-19T01:37:17;12.20;89.50
52245;DHT22;55759;51.586;-1.758;2023-09-19T01:40:20;12.20;89.60
52245;DHT22;55759;51.586;-1.758;2023-09-19T01:45:12;12.20;89.80
52245;DHT22;55759;51.586;-1.758;2023-09-19T01:47:49;12.20;89.80
52245;DHT22;55759;51.586;-1.758;2023-09-19T01:52:57;12.30;89.90
52245;DHT22;55759;51.586;-1.758;2023-09-19T01:55:26;12.30;89.90
52245;DHT22;55759;51.586;-1.758;2023-09-19T01:58:29;12.20;89.90
52245;DHT22;55759;51.586;-1.758;2023-09-19T02:00:49;12.20;89.80
52245;DHT22;55759;51.586;-1.758;2023-09-19T02:03:20;12.30;89.70
52245;DHT22;55759;51.586;-1.758;2023-09-19T02:05:56;12.30;89.70
52245;DHT22;55759;51.586;-1.758;2023-09-19T02:08:22;12.40;89.60
52245;DHT22;55759;51.586;-1.758;2023-09-19T02:10:50;12.40;89.40
52245;DHT22;55759;51.586;-1.758;2023-09-19T02:13:16;12.40;89.40
52245;DHT22;55759;51.586;-1.758;2023-09-19T02:15:42;12.40;89.40
52245;DHT22;55759;51.586;-1.758;2023-09-19T02:18:10;12.40;89.30
52245;DHT22;55759;51.586;-1.758;2023-09-19T02:20:37;12.40;89.10
52245;DHT22;55759;51.586;-1.758;2023-09-19T02:23:03;12.30;89.00
52245;DHT22;55759;51.586;-1.758;2023-09-19T02:25:28;12.30;89.00
52245;DHT22;55759;51.586;-1.758;2023-09-19T02:27:54;12.20;88.90
52245;DHT22;55759;51.586;-1.758;2023-09-19T02:30:24;12.20;89.00
52245;DHT22;55759;51.586;-1.758;2023-09-19T02:32:51;12.20;89.00
52245;DHT22;55759;51.586;-1.758;2023-09-19T02:35:17;12.20;89.10
52245;DHT22;55759;51.586;-1.758;2023-09-19T02:37:45;12.10;89.30
52245;DHT22;55759;51.586;-1.758;2023-09-19T02:40:11;12.10;89.40
52245;DHT22;55759;51.586;-1.758;2023-09-19T02:42:47;12.10;89.50
52245;DHT22;55759;51.586;-1.758;2023-09-19T02:45:18;12.00;89.70
52245;DHT22;55759;51.586;-1.758;2023-09-19T02:47:44;12.00;89.90
52245;DHT22;55759;51.586;-1.758;2023-09-19T02:50:10;12.00;90.00
52245;DHT22;55759;51.586;-1.758;2023-09-19T02:52:41;12.00;89.90
52245;DHT22;55759;51.586;-1.758;2023-09-19T02:55:08;12.10;89.90
52245;DHT22;55759;51.586;-1.758;2023-09-19T02:57:35;12.00;89.80
52245;DHT22;55759;51.586;-1.758;2023-09-19T03:00:02;12.00;89.80
52245;DHT22;55759;51.586;-1.758;2023-09-19T03:02:28;12.00;89.80
52245;DHT22;55759;51.586;-1.758;2023-09-19T03:04:54;12.00;89.80
52245;DHT22;55759;51.586;-1.758;2023-09-19T03:07:21;12.00;89.80
52245;DHT22;55759;51.586;-1.758;2023-09-19T03:09:47;12.00;89.90
52245;DHT22;55759;51.586;-1.758;2023-09-19T03:12:13;12.00;90.00
52245;DHT22;55759;51.586;-1.758;2023-09-19T03:14:41;12.00;90.00
52245;DHT22;55759;51.586;-1.758;2023-09-19T03:17:09;12.00;90.10
52245;DHT22;55759;51.586;-1.758;2023-09-19T03:19:34;12.00;90.10
52245;DHT22;55759;51.586;-1.758;2023-09-19T03:22:00;12.10;90.20
52245;DHT22;55759;51.586;-1.758;2023-09-19T03:24:26;12.10;90.10
52245;DHT22;55759;51.586;-1.758;2023-09-19T03:26:52;12.10;90.00
52245;DHT22;55759;51.586;-1.758;2023-09-19T03:29:18;12.10;90.00
52245;DHT22;55759;51.586;-1.758;2023-09-19T03:31:43;12.10;89.90
52245;DHT22;55759;51.586;-1.758;2023-09-19T03:34:09;12.20;89.90
52245;DHT22;55759;51.586;-1.758;2023-09-19T03:36:35;12.20;89.80
52245;DHT22;55759;51.586;-1.758;2023-09-19T03:39:01;12.20;89.70
52245;DHT22;55759;51.586;-1.758;2023-09-19T03:41:27;12.20;89.80
52245;DHT22;55759;51.586;-1.758;2023-09-19T03:43:52;12.20;89.80
52245;DHT22;55759;51.586;-1.758;2023-09-19T03:46:18;12.30;89.80
52245;DHT22;55759;51.586;-1.758;2023-09-19T03:48:44;12.40;89.70
52245;DHT22;55759;51.586;-1.758;2023-09-19T03:51:09;12.40;89.60
52245;DHT22;55759;51.586;-1.758;2023-09-19T03:53:36;12.40;89.50
52245;DHT22;55759;51.586;-1.758;2023-09-19T03:56:04;12.50;89.20
52245;DHT22;55759;51.586;-1.758;2023-09-19T03:58:30;12.60;89.10
52245;DHT22;55759;51.586;-1.758;2023-09-19T04:00:56;12.60;88.90
52245;DHT22;55759;51.586;-1.758;2023-09-19T04:03:22;12.60;88.90
52245;DHT22;55759;51.586;-1.758;2023-09-19T04:05:47;12.70;88.80
52245;DHT22;55759;51.586;-1.758;2023-09-19T04:08:13;12.70;88.70
52245;DHT22;55759;51.586;-1.758;2023-09-19T04:10:42;12.70;88.60
52245;DHT22;55759;51.586;-1.758;2023-09-19T04:13:09;12.80;88.50
52245;DHT22;55759;51.586;-1.758;2023-09-19T04:15:34;12.80;88.40
52245;DHT22;55759;51.586;-1.758;2023-09-19T04:18:00;12.90;88.30
52245;DHT22;55759;51.586;-1.758;2023-09-19T04:20:26;13.00;88.00
52245;DHT22;55759;51.586;-1.758;2023-09-19T04:22:51;13.10;87.70
52245;DHT22;55759;51.586;-1.758;2023-09-19T04:25:17;13.20;87.40
52245;DHT22;55759;51.586;-1.758;2023-09-19T04:27:44;13.20;87.20
52245;DHT22;55759;51.586;-1.758;2023-09-19T04:30:10;13.30;86.80
52245;DHT22;55759;51.586;-1.758;2023-09-19T04:32:37;13.40;86.60
52245;DHT22;55759;51.586;-1.758;2023-09-19T04:35:08;13.40;86.40
52245;DHT22;55759;51.586;-1.758;2023-09-19T04:37:41;13.40;86.30
52245;DHT22;55759;51.586;-1.758;2023-09-19T04:40:08;13.50;85.90
52245;DHT22;55759;51.586;-1.758;2023-09-19T04:42:38;13.50;85.60
52245;DHT22;55759;51.586;-1.758;2023-09-19T04:45:04;13.60;85.30
52245;DHT22;55759;51.586;-1.758;2023-09-19T04:47:30;13.60;85.30
52245;DHT22;55759;51.586;-1.758;2023-09-19T04:49:56;13.60;85.00
52245;DHT22;55759;51.586;-1.758;2023-09-19T04:52:24;13.70;84.80
52245;DHT22;55759;51.586;-1.758;2023-09-19T04:54:50;13.70;84.60
52245;DHT22;55759;51.586;-1.758;2023-09-19T04:57:15;13.70;84.60
52245;DHT22;55759;51.586;-1.758;2023-09-19T04:59:41;13.70;84.40
52245;DHT22;55759;51.586;-1.758;2023-09-19T05:02:07;13.80;83.50
52245;DHT22;55759;51.586;-1.758;2023-09-19T05:04:35;13.90;83.00
52245;DHT22;55759;51.586;-1.758;2023-09-19T05:07:04;13.90;83.00
52245;DHT22;55759;51.586;-1.758;2023-09-19T05:09:29;13.90;82.90
52245;DHT22;55759;51.586;-1.758;2023-09-19T05:12:00;14.00;83.00
52245;DHT22;55759;51.586;-1.758;2023-09-19T05:14:25;14.00;82.80
52245;DHT22;55759;51.586;-1.758;2023-09-19T05:16:54;14.10;82.90
52245;DHT22;55759;51.586;-1.758;2023-09-19T05:19:22;14.10;83.20
52245;DHT22;55759;51.586;-1.758;2023-09-19T05:21:48;14.10;83.30
52245;DHT22;55759;51.586;-1.758;2023-09-19T05:24:14;14.10;83.40
52245;DHT22;55759;51.586;-1.758;2023-09-19T05:26:42;14.10;83.40
52245;DHT22;55759;51.586;-1.758;2023-09-19T05:29:08;14.10;83.40
52245;DHT22;55759;51.586;-1.758;2023-09-19T05:31:34;14.20;83.20
52245;DHT22;55759;51.586;-1.758;2023-09-19T05:34:02;14.20;83.30
52245;DHT22;55759;51.586;-1.758;2023-09-19T05:36:28;14.30;83.30
52245;DHT22;55759;51.586;-1.758;2023-09-19T05:38:55;14.40;83.30
52245;DHT22;55759;51.586;-1.758;2023-09-19T05:41:20;14.40;83.30
52245;DHT22;55759;51.586;-1.758;2023-09-19T05:43:48;14.40;83.50
52245;DHT22;55759;51.586;-1.758;2023-09-19T05:46:15;14.40;83.60
52245;DHT22;55759;51.586;-1.758;2023-09-19T05:48:41;14.40;83.80
52245;DHT22;55759;51.586;-1.758;2023-09-19T05:51:07;14.40;84.10
52245;DHT22;55759;51.586;-1.758;2023-09-19T05:53:35;14.50;84.20
52245;DHT22;55759;51.586;-1.758;2023-09-19T05:56:03;14.50;84.40
52245;DHT22;55759;51.586;-1.758;2023-09-19T05:58:29;14.50;84.40
52245;DHT22;55759;51.586;-1.758;2023-09-19T06:00:58;14.50;84.50
52245;DHT22;55759;51.586;-1.758;2023-09-19T06:03:24;14.50;84.50
52245;DHT22;55759;51.586;-1.758;2023-09-19T06:05:50;14.60;84.60
52245;DHT22;55759;51.586;-1.758;2023-09-19T06:08:25;14.60;84.60
52245;DHT22;55759;51.586;-1.758;2023-09-19T06:10:55;14.60;84.50
52245;DHT22;55759;51.586;-1.758;2023-09-19T06:13:25;14.60;84.60
52245;DHT22;55759;51.586;-1.758;2023-09-19T06:15:57;14.60;84.50
52245;DHT22;55759;51.586;-1.758;2023-09-19T06:18:25;14.60;84.20
52245;DHT22;55759;51.586;-1.758;2023-09-19T06:21:00;14.70;84.00
52245;DHT22;55759;51.586;-1.758;2023-09-19T06:23:25;14.70;83.90
52245;DHT22;55759;51.586;-1.758;2023-09-19T06:25:54;14.80;83.80
52245;DHT22;55759;51.586;-1.758;2023-09-19T06:28:20;14.90;83.50
52245;DHT22;55759;51.586;-1.758;2023-09-19T06:30:50;14.90;83.40
52245;DHT22;55759;51.586;-1.758;2023-09-19T06:33:15;14.90;83.40
52245;DHT22;55759;51.586;-1.758;2023-09-19T06:35:44;14.90;83.30
52245;DHT22;55759;51.586;-1.758;2023-09-19T06:38:13;15.00;83.30
52245;DHT22;55759;51.586;-1.758;2023-09-19T06:40:40;15.00;83.00
52245;DHT22;55759;51.586;-1.758;2023-09-19T06:43:09;15.00;83.00
52245;DHT22;55759;51.586;-1.758;2023-09-19T06:45:35;15.10;82.80
52245;DHT22;55759;51.586;-1.758;2023-09-19T06:48:00;15.10;82.70
52245;DHT22;55759;51.586;-1.758;2023-09-19T06:50:28;15.10;82.60
52245;DHT22;55759;51.586;-1.758;2023-09-19T06:52:58;15.10;82.40
52245;DHT22;55759;51.586;-1.758;2023-09-19T06:55:34;15.20;82.40
52245;DHT22;55759;51.586;-1.758;2023-09-19T06:58:01;15.20;82.10
52245;DHT22;55759;51.586;-1.758;2023-09-19T07:00:29;15.20;82.20
52245;DHT22;55759;51.586;-1.758;2023-09-19T07:02:58;15.30;82.10
52245;DHT22;55759;51.586;-1.758;2023-09-19T07:05:28;15.40;81.20
52245;DHT22;55759;51.586;-1.758;2023-09-19T07:08:09;15.50;80.90
52245;DHT22;55759;51.586;-1.758;2023-09-19T07:10:39;15.50;80.70
52245;DHT22;55759;51.586;-1.758;2023-09-19T07:13:14;15.60;80.60
52245;DHT22;55759;51.586;-1.758;2023-09-19T07:15:42;15.70;80.20
52245;DHT22;55759;51.586;-1.758;2023-09-19T07:18:12;15.70;80.20
52245;DHT22;55759;51.586;-1.758;2023-09-19T07:20:40;15.80;79.80
52245;DHT22;55759;51.586;-1.758;2023-09-19T07:23:11;15.90;79.70
52245;DHT22;55759;51.586;-1.758;2023-09-19T07:25:49;16.10;79.20
52245;DHT22;55759;51.586;-1.758;2023-09-19T07:28:15;16.10;79.10
52245;DHT22;55759;51.586;-1.758;2023-09-19T07:30:41;16.20;78.90
52245;DHT22;55759;51.586;-1.758;2023-09-19T07:33:07;16.20;78.40
52245;DHT22;55759;51.586;-1.758;2023-09-19T07:35:36;16.30;78.50
52245;DHT22;55759;51.586;-1.758;2023-09-19T07:38:05;16.40;78.30
52245;DHT22;55759;51.586;-1.758;2023-09-19T07:40:30;16.50;77.90
52245;DHT22;55759;51.586;-1.758;2023-09-19T07:42:56;16.60;77.90
52245;DHT22;55759;51.586;-1.758;2023-09-19T07:45:31;16.70;77.00
52245;DHT22;55759;51.586;-1.758;2023-09-19T07:51:22;16.70;76.80
52245;DHT22;55759;51.586;-1.758;2023-09-19T07:54:06;16.70;76.70
52245;DHT22;55759;51.586;-1.758;2023-09-19T07:57:06;16.70;76.30
52245;DHT22;55759;51.586;-1.758;2023-09-19T08:05:43;17.00;76.40
52245;DHT22;55759;51.586;-1.758;2023-09-19T08:08:15;17.10;76.00
52245;DHT22;55759;51.586;-1.758;2023-09-19T08:10:51;17.10;76.30
52245;DHT22;55759;51.586;-1.758;2023-09-19T08:16:21;17.20;75.90
52245;DHT22;55759;51.586;-1.758;2023-09-19T08:18:50;17.20;76.20
52245;DHT22;55759;51.586;-1.758;2023-09-19T08:21:21;17.10;76.30
52245;DHT22;55759;51.586;-1.758;2023-09-19T08:23:47;17.10;76.60
52245;DHT22;55759;51.586;-1.758;2023-09-19T08:26:13;17.10;76.40
52245;DHT22;55759;51.586;-1.758;2023-09-19T08:28:38;17.10;76.50
52245;DHT22;55759;51.586;-1.758;2023-09-19T08:31:07;17.20;76.20
52245;DHT22;55759;51.586;-1.758;2023-09-19T08:33:36;17.30;75.80
52245;DHT22;55759;51.586;-1.758;2023-09-19T08:36:05;17.50;75.60
52245;DHT22;55759;51.586;-1.758;2023-09-19T08:38:41;17.60;74.70
52245;DHT22;55759;51.586;-1.758;2023-09-19T08:41:11;17.80;74.20
52245;DHT22;55759;51.586;-1.758;2023-09-19T08:43:40;18.00;73.50
52245;DHT22;55759;51.586;-1.758;2023-09-19T08:46:15;18.30;72.80
52245;DHT22;55759;51.586;-1.758;2023-09-19T08:48:45;18.50;72.60
52245;DHT22;55759;51.586;-1.758;2023-09-19T08:51:18;18.80;71.10
52245;DHT22;55759;51.586;-1.758;2023-09-19T08:56:31;18.70;71.00
52245;DHT22;55759;51.586;-1.758;2023-09-19T08:59:05;18.60;71.50
52245;DHT22;55759;51.586;-1.758;2023-09-19T09:01:33;18.50;71.70
52245;DHT22;55759;51.586;-1.758;2023-09-19T09:03:59;18.40;72.00
52245;DHT22;55759;51.586;-1.758;2023-09-19T09:06:26;18.30;72.70
52245;DHT22;55759;51.586;-1.758;2023-09-19T09:08:56;18.20;73.30
52245;DHT22;55759;51.586;-1.758;2023-09-19T09:11:22;18.10;73.10
52245;DHT22;55759;51.586;-1.758;2023-09-19T09:13:50;18.10;73.30
52245;DHT22;55759;51.586;-1.758;2023-09-19T09:16:18;18.20;73.10
52245;DHT22;55759;51.586;-1.758;2023-09-19T09:18:46;18.20;73.60
52245;DHT22;55759;51.586;-1.758;2023-09-19T09:21:17;18.20;73.60
52245;DHT22;55759;51.586;-1.758;2023-09-19T09:23:43;18.20;73.60
52245;DHT22;55759;51.586;-1.758;2023-09-19T09:26:09;18.30;73.50
52245;DHT22;55759;51.586;-1.758;2023-09-19T09:28:34;18.20;73.90
52245;DHT22;55759;51.586;-1.758;2023-09-19T09:31:04;18.20;73.80
52245;DHT22;55759;51.586;-1.758;2023-09-19T09:33:37;18.20;74.20
52245;DHT22;55759;51.586;-1.758;2023-09-19T09:36:03;18.20;74.40
52245;DHT22;55759;51.586;-1.758;2023-09-19T09:38:42;18.30;74.10
52245;DHT22;55759;51.586;-1.758;2023-09-19T09:41:09;18.30;73.80
52245;DHT22;55759;51.586;-1.758;2023-09-19T09:43:36;18.50;73.20
52245;DHT22;55759;51.586;-1.758;2023-09-19T09:46:18;18.60;72.60
52245;DHT22;55759;51.586;-1.758;2023-09-19T09:48:58;18.60;72.90
52245;DHT22;55759;51.586;-1.758;2023-09-19T09:51:43;18.50;73.40
52245;DHT22;55759;51.586;-1.758;2023-09-19T09:54:13;18.40;73.60
52245;DHT22;55759;51.586;-1.758;2023-09-19T09:56:56;18.30;74.10
52245;DHT22;55759;51.586;-1.758;2023-09-19T09:59:49;18.30;74.50
52245;DHT22;55759;51.586;-1.758;2023-09-19T10:02:29;18.20;74.80
52245;DHT22;55759;51.586;-1.758;2023-09-19T10:04:58;18.20;75.20
52245;DHT22;55759;51.586;-1.758;2023-09-19T10:07:35;18.30;74.90
52245;DHT22;55759;51.586;-1.758;2023-09-19T10:10:06;18.40;74.90
52245;DHT22;55759;51.586;-1.758;2023-09-19T10:12:44;18.30;75.00
52245;DHT22;55759;51.586;-1.758;2023-09-19T10:15:14;18.30;75.20
52245;DHT22;55759;51.586;-1.758;2023-09-19T10:17:45;18.20;75.30
52245;DHT22;55759;51.586;-1.758;2023-09-19T10:20:12;18.20;75.50
52245;DHT22;55759;51.586;-1.758;2023-09-19T10:22:48;18.30;75.50
52245;DHT22;55759;51.586;-1.758;2023-09-19T10:25:28;18.30;75.50
52245;DHT22;55759;51.586;-1.758;2023-09-19T10:27:54;18.30;75.80
52245;DHT22;55759;51.586;-1.758;2023-09-19T10:30:26;18.30;76.10
52245;DHT22;55759;51.586;-1.758;2023-09-19T10:32:58;18.20;76.10
52245;DHT22;55759;51.586;-1.758;2023-09-19T10:35:25;18.20;76.70
52245;DHT22;55759;51.586;-1.758;2023-09-19T10:37:51;18.20;76.90
52245;DHT22;55759;51.586;-1.758;2023-09-19T10:40:22;18.20;76.90
52245;DHT22;55759;51.586;-1.758;2023-09-19T10:43:00;18.20;76.80
52245;DHT22;55759;51.586;-1.758;2023-09-19T10:45:28;18.30;77.00
52245;DHT22;55759;51.586;-1.758;2023-09-19T10:47:57;18.40;76.80
52245;DHT22;55759;51.586;-1.758;2023-09-19T10:50:22;18.40;76.80
52245;DHT22;55759;51.586;-1.758;2023-09-19T10:52:49;18.50;76.90
52245;DHT22;55759;51.586;-1.758;2023-09-19T10:55:17;18.60;76.90
52245;DHT22;55759;51.586;-1.758;2023-09-19T10:57:53;18.60;76.80
52245;DHT22;55759;51.586;-1.758;2023-09-19T11:00:19;18.70;76.70
52245;DHT22;55759;51.586;-1.758;2023-09-19T11:05:32;18.90;76.00
52245;DHT22;55759;51.586;-1.758;2023-09-19T11:07:59;19.00;75.80
52245;DHT22;55759;51.586;-1.758;2023-09-19T11:10:46;19.00;76.00
52245;DHT22;55759;51.586;-1.758;2023-09-19T11:13:24;18.80;76.50
52245;DHT22;55759;51.586;-1.758;2023-09-19T11:26:43;18.80;77.80
52245;DHT22;55759;51.586;-1.758;2023-09-19T11:29:33;18.90;78.00
52245;DHT22;55759;51.586;-1.758;2023-09-19T11:31:58;19.10;77.40
52245;DHT22;55759;51.586;-1.758;2023-09-19T11:42:42;19.70;74.80
52245;DHT22;55759;51.586;-1.758;2023-09-19T11:48:23;19.70;75.60
52245;DHT22;55759;51.586;-1.758;2023-09-19T11:50:50;19.90;75.30
52245;DHT22;55759;51.586;-1.758;2023-09-19T11:53:19;20.10;74.30
52245;DHT22;55759;51.586;-1.758;2023-09-19T11:55:45;20.30;73.40
52245;DHT22;55759;51.586;-1.758;2023-09-19T11:58:17;20.30;73.10
52245;DHT22;55759;51.586;-1.758;2023-09-19T12:00:43;20.10;73.40
52245;DHT22;55759;51.586;-1.758;2023-09-19T12:03:10;19.80;75.90
52245;DHT22;55759;51.586;-1.758;2023-09-19T12:05:36;19.40;77.80
52245;DHT22;55759;51.586;-1.758;2023-09-19T12:08:05;18.90;79.30
52245;DHT22;55759;51.586;-1.758;2023-09-19T12:10:47;18.80;80.70
52245;DHT22;55759;51.586;-1.758;2023-09-19T12:13:17;18.70;80.90
52245;DHT22;55759;51.586;-1.758;2023-09-19T12:15:43;18.60;80.90
52245;DHT22;55759;51.586;-1.758;2023-09-19T12:18:25;18.80;81.00
52245;DHT22;55759;51.586;-1.758;2023-09-19T12:20:51;18.80;80.50
52245;DHT22;55759;51.586;-1.758;2023-09-19T12:23:23;18.90;80.10
52245;DHT22;55759;51.586;-1.758;2023-09-19T12:25:51;19.10;79.50
52245;DHT22;55759;51.586;-1.758;2023-09-19T12:28:19;19.30;79.00
52245;DHT22;55759;51.586;-1.758;2023-09-19T12:30:47;19.50;78.00
52245;DHT22;55759;51.586;-1.758;2023-09-19T12:33:16;19.60;77.20
52245;DHT22;55759;51.586;-1.758;2023-09-19T12:35:45;19.70;76.90
52245;DHT22;55759;51.586;-1.758;2023-09-19T12:38:11;19.80;76.70
52245;DHT22;55759;51.586;-1.758;2023-09-19T12:40:37;19.70;76.40
52245;DHT22;55759;51.586;-1.758;2023-09-19T12:43:03;19.70;76.60
52245;DHT22;55759;51.586;-1.758;2023-09-19T12:45:33;19.60;77.10
52245;DHT22;55759;51.586;-1.758;2023-09-19T12:51:01;19.60;77.40
52245;DHT22;55759;51.586;-1.758;2023-09-19T12:53:37;19.50;77.40
52245;DHT22;55759;51.586;-1.758;2023-09-19T12:56:08;19.30;78.20
52245;DHT22;55759;51.586;-1.758;2023-09-19T13:01:22;19.20;79.10
52245;DHT22;55759;51.586;-1.758;2023-09-19T13:04:11;19.20;79.40
52245;DHT22;55759;51.586;-1.758;2023-09-19T13:06:51;19.20;79.20
52245;DHT22;55759;51.586;-1.758;2023-09-19T13:09:17;19.20;79.40
52245;DHT22;55759;51.586;-1.758;2023-09-19T13:11:43;19.30;79.10
52245;DHT22;55759;51.586;-1.758;2023-09-19T13:22:36;19.10;79.90
52245;DHT22;55759;51.586;-1.758;2023-09-19T13:24:51;19.10;80.40
52245;DHT22;55759;51.586;-1.758;2023-09-19T13:27:17;19.10;79.90
52245;DHT22;55759;51.586;-1.758;2023-09-19T13:29:42;19.30;79.70
52245;DHT22;55759;51.586;-1.758;2023-09-19T13:32:08;19.40;79.20
52245;DHT22;55759;51.586;-1.758;2023-09-19T13:34:36;19.40;79.20
52245;DHT22;55759;51.586;-1.758;2023-09-19T13:37:03;19.50;79.40
52245;DHT22;55759;51.586;-1.758;2023-09-19T13:39:30;19.30;80.20
52245;DHT22;55759;51.586;-1.758;2023-09-19T13:41:55;19.10;81.10
52245;DHT22;55759;51.586;-1.758;2023-09-19T13:44:21;18.90;82.20
52245;DHT22;55759;51.586;-1.758;2023-09-19T13:46:46;18.70;83.10
52245;DHT22;55759;51.586;-1.758;2023-09-19T13:49:12;18.60;84.00
52245;DHT22;55759;51.586;-1.758;2023-09-19T13:51:38;18.30;85.00
52245;DHT22;55759;51.586;-1.758;2023-09-19T13:54:03;18.20;85.60
52245;DHT22;55759;51.586;-1.758;2023-09-19T13:56:29;18.10;86.10
52245;DHT22;55759;51.586;-1.758;2023-09-19T13:58:56;18.10;86.70
52245;DHT22;55759;51.586;-1.758;2023-09-19T14:01:22;18.20;86.40
52245;DHT22;55759;51.586;-1.758;2023-09-19T14:03:47;18.40;86.30
52245;DHT22;55759;51.586;-1.758;2023-09-19T14:06:22;18.60;86.00
52245;DHT22;55759;51.586;-1.758;2023-09-19T14:08:48;18.70;85.30
52245;DHT22;55759;51.586;-1.758;2023-09-19T14:11:15;18.70;85.10
52245;DHT22;55759;51.586;-1.758;2023-09-19T14:13:41;18.80;84.50
52245;DHT22;55759;51.586;-1.758;2023-09-19T14:16:09;18.80;84.70
52245;DHT22;55759;51.586;-1.758;2023-09-19T14:18:35;19.00;84.90
52245;DHT22;55759;51.586;-1.758;2023-09-19T14:21:04;19.20;83.90
52245;DHT22;55759;51.586;-1.758;2023-09-19T14:23:34;19.50;82.60
52245;DHT22;55759;51.586;-1.758;2023-09-19T14:26:00;19.80;81.70
52245;DHT22;55759;51.586;-1.758;2023-09-19T14:28:26;20.10;80.00
52245;DHT22;55759;51.586;-1.758;2023-09-19T14:30:52;20.10;79.40
52245;DHT22;55759;51.586;-1.758;2023-09-19T14:33:18;20.20;77.70
52245;DHT22;55759;51.586;-1.758;2023-09-19T14:35:43;20.30;77.50
52245;DHT22;55759;51.586;-1.758;2023-09-19T14:38:09;20.40;76.90
52245;DHT22;55759;51.586;-1.758;2023-09-19T14:40:34;20.50;76.30
52245;DHT22;55759;51.586;-1.758;2023-09-19T14:43:04;20.50;76.20
52245;DHT22;55759;51.586;-1.758;2023-09-19T14:45:30;20.50;76.40
52245;DHT22;55759;51.586;-1.758;2023-09-19T14:47:56;20.40;74.60
52245;DHT22;55759;51.586;-1.758;2023-09-19T14:50:22;20.30;74.90
52245;DHT22;55759;51.586;-1.758;2023-09-19T14:52:48;20.30;73.70
52245;DHT22;55759;51.586;-1.758;2023-09-19T14:55:16;20.20;73.40
52245;DHT22;55759;51.586;-1.758;2023-09-19T14:57:42;20.10;74.00
52245;DHT22;55759;51.586;-1.758;2023-09-19T15:00:12;20.10;73.50
52245;DHT22;55759;51.586;-1.758;2023-09-19T15:02:39;20.10;73.70
52245;DHT22;55759;51.586;-1.758;2023-09-19T15:05:09;20.10;73.30
52245;DHT22;55759;51.586;-1.758;2023-09-19T15:07:35;20.00;74.10
52245;DHT22;55759;51.586;-1.758;2023-09-19T15:10:02;20.10;74.60
52245;DHT22;55759;51.586;-1.758;2023-09-19T15:12:35;20.10;74.60
52245;DHT22;55759;51.586;-1.758;2023-09-19T15:15:03;20.20;74.10
52245;DHT22;55759;51.586;-1.758;2023-09-19T15:17:32;20.20;72.90
52245;DHT22;55759;51.586;-1.758;2023-09-19T15:19:58;20.30;73.10
52245;DHT22;55759;51.586;-1.758;2023-09-19T15:22:23;20.20;72.70
52245;DHT22;55759;51.586;-1.758;2023-09-19T15:24:49;20.20;73.50
52245;DHT22;55759;51.586;-1.758;2023-09-19T15:27:19;20.20;74.40
52245;DHT22;55759;51.586;-1.758;2023-09-19T15:32:30;20.10;74.10
52245;DHT22;55759;51.586;-1.758;2023-09-19T15:34:57;19.90;75.30
52245;DHT22;55759;51.586;-1.758;2023-09-19T15:37:23;19.90;75.80
52245;DHT22;55759;51.586;-1.758;2023-09-19T15:39:48;20.00;74.80
52245;DHT22;55759;51.586;-1.758;2023-09-19T15:42:14;19.90;75.20
52245;DHT22;55759;51.586;-1.758;2023-09-19T15:44:41;19.70;76.50
52245;DHT22;55759;51.586;-1.758;2023-09-19T15:47:09;19.40;78.00
52245;DHT22;55759;51.586;-1.758;2023-09-19T15:49:35;19.00;79.70
52245;DHT22;55759;51.586;-1.758;2023-09-19T15:52:00;18.70;81.10
52245;DHT22;55759;51.586;-1.758;2023-09-19T15:54:26;18.60;81.50
52245;DHT22;55759;51.586;-1.758;2023-09-19T15:56:53;18.80;82.00
52245;DHT22;55759;51.586;-1.758;2023-09-19T15:59:20;19.30;81.00
52245;DHT22;55759;51.586;-1.758;2023-09-19T16:01:46;20.20;78.10
52245;DHT22;55759;51.586;-1.758;2023-09-19T16:04:12;20.70;76.10
52245;DHT22;55759;51.586;-1.758;2023-09-19T16:06:38;21.00;73.90
52245;DHT22;55759;51.586;-1.758;2023-09-19T16:09:04;21.10;72.30
52245;DHT22;55759;51.586;-1.758;2023-09-19T16:11:33;21.00;71.50
52245;DHT22;55759;51.586;-1.758;2023-09-19T16:13:58;20.80;71.80
52245;DHT22;55759;51.586;-1.758;2023-09-19T16:16:25;20.60;72.90
52245;DHT22;55759;51.586;-1.758;2023-09-19T16:18:59;20.30;73.50
52245;DHT22;55759;51.586;-1.758;2023-09-19T16:21:26;20.10;74.50
52245;DHT22;55759;51.586;-1.758;2023-09-19T16:23:53;19.90;75.80
52245;DHT22;55759;51.586;-1.758;2023-09-19T16:26:19;19.60;77.40
52245;DHT22;55759;51.586;-1.758;2023-09-19T16:28:45;19.40;77.30
52245;DHT22;55759;51.586;-1.758;2023-09-19T16:31:11;19.30;77.50
52245;DHT22;55759;51.586;-1.758;2023-09-19T16:33:39;19.20;79.00
52245;DHT22;55759;51.586;-1.758;2023-09-19T16:36:08;19.20;79.60
52245;DHT22;55759;51.586;-1.758;2023-09-19T16:38:34;19.10;80.00